createdAt,value
2023-01-30T00:01:55.269Z,100.00
2023-01-30T00:04:22.164Z,100.00
2023-01-30T00:06:48.924Z,100.00
2023-01-30T00:09:15.676Z,100.00
2023-01-30T00:11:42.599Z,100.00
2023-01-30T00:14:09.486Z,100.00
2023-01-30T00:16:36.252Z,100.00
2023-01-30T00:19:04.567Z,100.00
2023-01-30T00:21:31.276Z,100.00
2023-01-30T00:23:58.151Z,100.00
2023-01-30T00:26:24.914Z,100.00
2023-01-30T00:28:51.731Z,100.00
2023-01-30T00:31:18.607Z,100.00
2023-01-30T00:33:45.374Z,100.00
2023-01-30T00:36:13.558Z,100.00
2023-01-30T00:38:40.359Z,100.00
2023-01-30T00:41:07.393Z,100.00
2023-01-30T00:43:34.389Z,100.00
2023-01-30T00:46:03.233Z,100.00
2023-01-30T00:48:30.460Z,100.00
2023-01-30T00:50:57.375Z,100.00
2023-01-30T00:53:25.772Z,100.00
2023-01-30T00:55:53.172Z,100.00
2023-01-30T00:58:20.221Z,100.00
2023-01-30T01:00:47.002Z,100.00
2023-01-30T01:03:13.982Z,100.00
2023-01-30T01:05:40.936Z,100.00
2023-01-30T01:08:07.634Z,100.00
2023-01-30T01:10:36.415Z,100.00
2023-01-30T01:13:03.316Z,100.00
2023-01-30T01:15:30.085Z,100.00
2023-01-30T01:17:56.886Z,100.00
2023-01-30T01:20:23.708Z,100.00
2023-01-30T01:22:53.842Z,100.00
2023-01-30T01:25:20.787Z,100.00
2023-01-30T01:27:49.243Z,100.00
2023-01-30T01:30:16.799Z,100.00
2023-01-30T01:32:43.755Z,100.00
2023-01-30T01:35:10.884Z,100.00
2023-01-30T01:37:38.115Z,100.00
2023-01-30T01:40:06.586Z,100.00
2023-01-30T01:42:35.760Z,100.00
2023-01-30T01:45:16.003Z,100.00
2023-01-30T01:47:47.396Z,100.00
2023-01-30T01:50:19.294Z,100.00
2023-01-30T01:52:48.183Z,100.00
2023-01-30T01:55:16.522Z,100.00
2023-01-30T01:57:49.113Z,100.00
2023-01-30T02:00:20.207Z,100.00
2023-01-30T02:02:51.794Z,100.00
2023-01-30T02:05:20.345Z,100.00
2023-01-30T02:07:52.326Z,100.00
2023-01-30T02:10:24.228Z,100.00
2023-01-30T02:12:51.741Z,100.00
2023-01-30T02:15:20.342Z,100.00
2023-01-30T02:17:47.276Z,100.00
2023-01-30T02:20:27.288Z,100.00
2023-01-30T02:23:43.190Z,100.00
2023-01-30T02:26:45.715Z,100.00
2023-01-30T02:29:45.095Z,100.00
2023-01-30T02:32:21.471Z,100.00
2023-01-30T02:34:56.939Z,100.00
2023-01-30T02:37:35.921Z,100.00
2023-01-30T02:40:15.715Z,100.00
2023-01-30T02:42:47.348Z,100.00
2023-01-30T02:45:24.277Z,100.00
2023-01-30T02:48:00.036Z,100.00
2023-01-30T02:50:30.309Z,100.00
2023-01-30T02:52:57.996Z,100.00
2023-01-30T02:55:27.951Z,100.00
2023-01-30T02:57:55.388Z,100.00
2023-01-30T03:00:28.158Z,100.00
2023-01-30T03:03:22.606Z,100.00
2023-01-30T03:06:08.072Z,100.00
2023-01-30T03:08:42.804Z,100.00
2023-01-30T03:11:11.265Z,100.00
2023-01-30T03:13:48.265Z,100.00
2023-01-30T03:16:21.071Z,100.00
2023-01-30T03:18:49.683Z,100.00
2023-01-30T03:21:16.850Z,100.00
2023-01-30T03:23:44.800Z,100.00
2023-01-30T03:26:18.072Z,100.00
2023-01-30T03:28:48.710Z,100.00
2023-01-30T03:31:15.627Z,100.00
2023-01-30T03:33:42.640Z,100.00
2023-01-30T03:36:11.061Z,100.00
2023-01-30T03:38:38.011Z,100.00
2023-01-30T03:41:05.954Z,100.00
2023-01-30T03:43:32.831Z,100.00
2023-01-30T03:45:59.736Z,100.00
2023-01-30T03:48:26.654Z,100.00
2023-01-30T03:50:53.424Z,100.00
2023-01-30T03:53:21.526Z,100.00
2023-01-30T03:55:48.302Z,100.00
2023-01-30T03:58:15.090Z,100.00
2023-01-30T04:00:41.923Z,100.00
2023-01-30T04:03:08.773Z,100.00
2023-01-30T04:05:35.491Z,100.00
2023-01-30T04:08:02.233Z,100.00
2023-01-30T04:10:30.359Z,100.00
2023-01-30T04:12:57.102Z,100.00
2023-01-30T04:15:23.879Z,100.00
2023-01-30T04:17:50.602Z,100.00
2023-01-30T04:20:17.503Z,100.00
2023-01-30T04:22:44.324Z,100.00
2023-01-30T04:25:11.232Z,100.00
2023-01-30T04:27:39.357Z,100.00
2023-01-30T04:30:07.503Z,100.00
2023-01-30T04:32:34.232Z,100.00
2023-01-30T04:35:00.955Z,100.00
2023-01-30T04:37:27.729Z,100.00
2023-01-30T04:39:54.530Z,100.00
2023-01-30T04:42:21.293Z,100.00
2023-01-30T04:44:49.388Z,100.00
2023-01-30T04:47:16.725Z,100.00
2023-01-30T04:49:43.632Z,100.00
2023-01-30T04:52:10.347Z,100.00
2023-01-30T04:54:37.285Z,100.00
2023-01-30T04:57:04.447Z,100.00
2023-01-30T04:59:31.280Z,100.00
2023-01-30T05:01:59.394Z,100.00
2023-01-30T05:04:26.221Z,100.00
2023-01-30T05:06:52.931Z,100.00
2023-01-30T05:09:19.758Z,100.00
2023-01-30T05:11:46.487Z,100.00
2023-01-30T05:14:13.345Z,100.00
2023-01-30T05:16:40.077Z,100.00
2023-01-30T05:19:10.835Z,100.00
2023-01-30T05:21:37.577Z,100.00
2023-01-30T05:24:04.944Z,100.00
2023-01-30T05:26:31.730Z,100.00
2023-01-30T05:28:58.654Z,100.00
2023-01-30T05:31:25.568Z,100.00
2023-01-30T05:33:52.818Z,100.00
2023-01-30T05:36:22.772Z,100.00
2023-01-30T05:38:49.629Z,100.00
2023-01-30T05:41:16.954Z,100.00
2023-01-30T05:43:44.155Z,100.00
2023-01-30T05:46:12.644Z,100.00
2023-01-30T05:48:39.625Z,100.00
2023-01-30T05:51:06.876Z,100.00
2023-01-30T05:53:35.241Z,100.00
2023-01-30T05:56:04.969Z,100.00
2023-01-30T05:58:32.867Z,100.00
2023-01-30T06:01:03.544Z,100.00
2023-01-30T06:03:31.376Z,100.00
2023-01-30T06:05:58.541Z,100.00
2023-01-30T06:08:25.467Z,100.00
2023-01-30T06:10:53.747Z,100.00
2023-01-30T06:13:20.725Z,100.00
2023-01-30T06:15:47.662Z,100.00
2023-01-30T06:18:14.431Z,100.00
2023-01-30T06:20:41.168Z,100.00
2023-01-30T06:23:07.948Z,100.00
2023-01-30T06:25:34.704Z,100.00
2023-01-30T06:28:02.989Z,100.00
2023-01-30T06:30:29.684Z,100.00
2023-01-30T06:32:56.397Z,100.00
2023-01-30T06:35:23.160Z,100.00
2023-01-30T06:37:49.893Z,100.00
2023-01-30T06:40:17.391Z,100.00
2023-01-30T06:42:45.349Z,100.00
2023-01-30T06:45:14.027Z,100.00
2023-01-30T06:47:45.559Z,100.00
2023-01-30T06:50:12.491Z,100.00
2023-01-30T06:52:41.247Z,100.00
2023-01-30T06:55:08.858Z,100.00
2023-01-30T06:57:35.694Z,100.00
2023-01-30T07:00:03.815Z,100.00
2023-01-30T07:02:32.093Z,100.00
2023-01-30T07:04:58.978Z,100.00
2023-01-30T07:07:25.846Z,100.00
2023-01-30T07:10:06.948Z,100.00
2023-01-30T07:12:34.393Z,100.00
2023-01-30T07:15:01.135Z,100.00
2023-01-30T07:17:27.887Z,100.00
2023-01-30T07:19:55.970Z,100.00
2023-01-30T07:22:23.000Z,100.00
2023-01-30T07:24:49.873Z,100.00
2023-01-30T07:27:16.675Z,100.00
2023-01-30T07:29:43.460Z,100.00
2023-01-30T07:32:15.065Z,100.00
2023-01-30T07:34:41.852Z,100.00
2023-01-30T07:37:10.098Z,100.00
2023-01-30T07:39:36.938Z,100.00
2023-01-30T07:42:04.627Z,100.00
2023-01-30T07:44:31.829Z,100.00
2023-01-30T07:46:58.608Z,100.00
2023-01-30T07:49:25.703Z,100.00
2023-01-30T07:51:52.565Z,100.00
2023-01-30T07:54:20.863Z,100.00
2023-01-30T07:56:47.569Z,100.00
2023-01-30T07:59:14.281Z,100.00
2023-01-30T08:01:41.015Z,100.00
2023-01-30T08:04:07.867Z,100.00
2023-01-30T08:06:34.604Z,100.00
2023-01-30T08:09:01.380Z,100.00
2023-01-30T08:11:29.510Z,100.00
2023-01-30T08:13:56.293Z,100.00
2023-01-30T08:16:23.175Z,100.00
2023-01-30T08:18:49.923Z,100.00
2023-01-30T08:21:16.789Z,99.98
2023-01-30T08:23:44.084Z,97.73
2023-01-30T08:26:11.025Z,94.87
2023-01-30T08:28:39.633Z,94.11
2023-01-30T08:31:10.186Z,93.85
2023-01-30T08:33:37.012Z,91.73
2023-01-30T08:36:04.110Z,89.68
2023-01-30T08:38:30.896Z,88.44
2023-01-30T08:40:57.677Z,88.76
2023-01-30T08:43:24.570Z,87.07
2023-01-30T08:45:54.749Z,89.13
2023-01-30T08:48:21.672Z,89.12
2023-01-30T08:50:50.955Z,88.85
2023-01-30T08:53:17.792Z,88.72
2023-01-30T08:55:44.585Z,89.83
2023-01-30T08:58:11.541Z,86.24
2023-01-30T09:00:38.280Z,85.68
2023-01-30T09:03:06.394Z,82.14
2023-01-30T09:05:33.133Z,84.24
2023-01-30T09:07:59.873Z,85.54
2023-01-30T09:10:26.802Z,86.67
2023-01-30T09:12:53.520Z,87.28
2023-01-30T09:15:20.254Z,85.86
2023-01-30T09:17:47.013Z,85.01
2023-01-30T09:20:15.242Z,85.20
2023-01-30T09:22:41.998Z,85.31
2023-01-30T09:25:09.414Z,83.54
2023-01-30T09:27:36.140Z,81.01
2023-01-30T09:30:03.675Z,81.21
2023-01-30T09:32:30.588Z,81.40
2023-01-30T09:34:57.324Z,81.52
2023-01-30T09:37:25.497Z,80.10
2023-01-30T09:39:52.279Z,72.05
2023-01-30T09:42:45.169Z,71.81
2023-01-30T09:45:32.843Z,74.36
2023-01-30T09:48:06.977Z,78.07
2023-01-30T09:50:45.894Z,77.05
2023-01-30T09:53:23.835Z,75.01
2023-01-30T09:55:51.469Z,74.79
2023-01-30T09:58:20.850Z,75.02
2023-01-30T10:00:49.163Z,75.26
2023-01-30T10:03:18.795Z,75.96
2023-01-30T10:05:48.918Z,76.80
2023-01-30T10:08:30.988Z,76.69
2023-01-30T10:11:09.939Z,78.40
2023-01-30T10:13:52.955Z,78.33
2023-01-30T10:16:25.128Z,78.79
2023-01-30T10:19:20.563Z,80.16
2023-01-30T10:22:01.243Z,80.72
2023-01-30T10:24:52.394Z,78.96
2023-01-30T10:27:21.173Z,78.00
2023-01-30T10:29:51.652Z,77.82
2023-01-30T10:32:23.519Z,77.86
2023-01-30T10:34:53.901Z,76.34
2023-01-30T10:37:29.527Z,75.39
2023-01-30T10:40:06.062Z,74.83
2023-01-30T10:42:39.003Z,73.93
2023-01-30T10:45:11.065Z,72.86
2023-01-30T10:48:03.574Z,72.59
2023-01-30T10:50:44.240Z,71.72
2023-01-30T10:53:16.724Z,71.55
2023-01-30T10:55:48.391Z,69.23
2023-01-30T10:58:23.255Z,69.44
2023-01-30T11:00:56.502Z,68.96
2023-01-30T11:03:33.694Z,68.48
2023-01-30T11:06:03.122Z,67.20
2023-01-30T11:08:31.780Z,67.99
2023-01-30T11:11:00.625Z,67.04
2023-01-30T11:13:30.133Z,66.83
2023-01-30T11:15:59.581Z,67.29
2023-01-30T11:19:18.338Z,66.47
2023-01-30T11:21:20.304Z,66.48
2023-01-30T11:23:47.109Z,65.83
2023-01-30T11:26:20.321Z,65.29
2023-01-30T11:28:48.934Z,65.19
2023-01-30T11:31:38.923Z,65.65
2023-01-30T11:34:15.807Z,64.98
2023-01-30T11:36:42.715Z,64.17
2023-01-30T11:39:21.921Z,64.42
2023-01-30T11:41:59.829Z,64.58
2023-01-30T11:44:28.051Z,63.90
2023-01-30T11:46:58.194Z,63.55
2023-01-30T11:49:47.808Z,63.42
2023-01-30T11:52:18.337Z,63.27
2023-01-30T11:54:45.852Z,63.79
2023-01-30T11:57:15.625Z,62.32
2023-01-30T11:59:45.961Z,62.54
2023-01-30T12:02:20.010Z,61.60
2023-01-30T12:04:48.389Z,61.71
2023-01-30T12:07:20.322Z,61.59
2023-01-30T12:09:47.105Z,61.31
2023-01-30T12:12:31.381Z,61.25
2023-01-30T12:15:09.578Z,61.64
2023-01-30T12:17:44.467Z,61.99
2023-01-30T12:20:18.117Z,61.40
2023-01-30T12:22:53.295Z,61.45
2023-01-30T12:25:25.290Z,60.15
2023-01-30T12:28:02.066Z,61.39
2023-01-30T12:30:35.780Z,62.05
2023-01-30T12:33:04.828Z,62.69
2023-01-30T12:35:43.351Z,61.90
2023-01-30T12:38:24.402Z,60.79
2023-01-30T12:41:02.768Z,61.37
2023-01-30T12:43:46.694Z,61.58
2023-01-30T12:46:30.739Z,61.35
2023-01-30T12:49:14.277Z,61.71
2023-01-30T12:51:58.678Z,61.90
2023-01-30T12:54:37.753Z,62.06
2023-01-30T12:57:15.082Z,61.67
2023-01-30T12:59:54.820Z,61.11
2023-01-30T13:02:48.728Z,60.92
2023-01-30T13:05:30.914Z,62.53
2023-01-30T13:08:09.987Z,62.03
2023-01-30T13:10:42.653Z,60.62
2023-01-30T13:13:17.959Z,61.23
2023-01-30T13:15:56.733Z,63.24
2023-01-30T13:18:27.029Z,63.33
2023-01-30T13:21:01.593Z,62.90
2023-01-30T13:23:41.301Z,64.67
2023-01-30T13:26:11.436Z,66.37
2023-01-30T13:28:43.507Z,65.25
2023-01-30T13:31:16.090Z,63.13
2023-01-30T13:33:45.289Z,61.74
2023-01-30T13:36:16.781Z,63.32
2023-01-30T13:38:54.404Z,61.79
2023-01-30T13:41:22.654Z,62.44
2023-01-30T13:43:53.079Z,65.00
2023-01-30T13:46:26.219Z,67.69
2023-01-30T13:49:05.942Z,66.87
2023-01-30T13:51:43.098Z,65.59
2023-01-30T13:54:26.129Z,64.46
2023-01-30T13:57:01.323Z,64.32
2023-01-30T13:59:49.806Z,64.69
2023-01-30T14:02:20.345Z,65.05
2023-01-30T14:07:33.776Z,66.10
2023-01-30T14:10:12.669Z,66.65
2023-01-30T14:12:42.621Z,66.19
2023-01-30T14:15:23.807Z,66.88
2023-01-30T14:17:58.870Z,65.88
2023-01-30T14:20:27.288Z,65.32
2023-01-30T14:22:58.020Z,66.92
2023-01-30T14:25:43.747Z,67.53
2023-01-30T14:28:49.329Z,68.11
2023-01-30T14:31:52.457Z,69.15
2023-01-30T14:34:39.002Z,69.65
2023-01-30T14:37:26.669Z,70.38
2023-01-30T14:39:55.862Z,69.19
2023-01-30T14:42:24.301Z,70.13
2023-01-30T14:45:14.079Z,71.93
2023-01-30T14:47:47.165Z,72.82
2023-01-30T14:50:20.743Z,73.73
2023-01-30T14:52:49.525Z,73.00
2023-01-30T14:55:21.237Z,71.53
2023-01-30T14:57:55.967Z,73.01
2023-01-30T15:00:26.863Z,75.52
2023-01-30T15:02:56.876Z,76.00
2023-01-30T15:05:30.697Z,73.92
2023-01-30T15:08:03.723Z,72.95
2023-01-30T15:11:03.568Z,77.26
2023-01-30T15:13:57.684Z,80.46
2023-01-30T15:16:53.620Z,82.74
2023-01-30T15:19:31.170Z,86.48
2023-01-30T15:22:09.043Z,86.61
2023-01-30T15:25:20.835Z,85.06
2023-01-30T15:28:00.716Z,83.67
2023-01-30T15:30:45.039Z,80.96
2023-01-30T15:33:22.888Z,79.10
2023-01-30T15:35:56.318Z,86.44
2023-01-30T15:38:26.511Z,89.82
2023-01-30T15:40:54.171Z,98.05
2023-01-30T15:43:42.384Z,96.80
2023-01-30T15:46:19.891Z,98.52
2023-01-30T15:49:04.039Z,100.00
2023-01-30T15:51:32.347Z,100.00
2023-01-30T15:54:02.587Z,100.00
2023-01-30T15:56:32.036Z,100.00
2023-01-30T15:59:01.464Z,100.00
2023-01-30T16:01:30.524Z,100.00
2023-01-30T16:03:57.613Z,100.00
2023-01-30T16:06:30.663Z,100.00
2023-01-30T16:08:59.659Z,100.00
2023-01-30T16:11:35.023Z,100.00
2023-01-30T16:14:03.084Z,100.00
2023-01-30T16:16:33.940Z,100.00
2023-01-30T16:19:03.217Z,100.00
2023-01-30T16:21:33.657Z,100.00
2023-01-30T16:24:05.025Z,100.00
2023-01-30T16:26:33.822Z,100.00
2023-01-30T16:29:02.991Z,100.00
2023-01-30T16:31:33.962Z,100.00
2023-01-30T16:34:01.218Z,100.00
2023-01-30T16:36:37.755Z,100.00
2023-01-30T16:39:27.769Z,100.00
2023-01-30T16:41:55.684Z,100.00
2023-01-30T16:44:24.391Z,100.00
2023-01-30T16:46:57.396Z,100.00
2023-01-30T16:49:37.513Z,100.00
2023-01-30T16:52:12.537Z,100.00
2023-01-30T16:54:40.185Z,100.00
2023-01-30T16:57:07.651Z,100.00
2023-01-30T16:59:35.838Z,100.00
2023-01-30T17:02:06.755Z,100.00
2023-01-30T17:04:34.781Z,100.00
2023-01-30T17:07:03.594Z,100.00
2023-01-30T17:09:44.277Z,100.00
2023-01-30T17:12:37.384Z,100.00
2023-01-30T17:15:30.341Z,100.00
2023-01-30T17:17:58.746Z,100.00
2023-01-30T17:20:35.445Z,100.00
2023-01-30T17:23:08.120Z,100.00
2023-01-30T17:25:39.271Z,100.00
2023-01-30T17:28:07.163Z,100.00
2023-01-30T17:30:33.996Z,100.00
2023-01-30T17:33:02.183Z,100.00
2023-01-30T17:35:28.991Z,100.00
2023-01-30T17:38:04.839Z,85.79
2023-01-30T17:40:34.233Z,81.11
2023-01-30T17:43:01.364Z,78.72
2023-01-30T17:45:28.722Z,77.40
2023-01-30T17:47:55.955Z,78.30
2023-01-30T17:50:24.515Z,87.18
2023-01-30T17:52:51.605Z,91.70
2023-01-30T17:55:18.876Z,84.77
2023-01-30T17:57:48.010Z,82.71
2023-01-30T18:00:17.448Z,78.31
2023-01-30T18:02:44.514Z,73.64
2023-01-30T18:05:11.369Z,73.10
2023-01-30T18:07:40.235Z,77.47
2023-01-30T18:10:08.435Z,71.06
2023-01-30T18:12:35.239Z,74.17
2023-01-30T18:15:02.014Z,71.45
2023-01-30T18:17:28.861Z,72.48
2023-01-30T18:19:55.990Z,73.25
2023-01-30T18:22:23.777Z,69.25
2023-01-30T18:24:52.197Z,72.14
2023-01-30T18:27:18.950Z,72.88
2023-01-30T18:29:45.806Z,69.12
2023-01-30T18:32:12.524Z,70.91
2023-01-30T18:34:39.367Z,68.75
2023-01-30T18:37:06.454Z,69.40
2023-01-30T18:39:33.225Z,67.27
2023-01-30T18:42:06.034Z,69.93
2023-01-30T18:44:33.008Z,73.08
2023-01-30T18:47:00.207Z,68.62
2023-01-30T18:49:27.120Z,69.39
2023-01-30T18:51:54.131Z,67.61
2023-01-30T18:54:20.969Z,66.72
2023-01-30T18:56:47.692Z,66.79
2023-01-30T18:59:19.685Z,67.91
2023-01-30T19:01:46.559Z,68.37
2023-01-30T19:04:13.506Z,63.84
2023-01-30T19:06:42.345Z,65.33
2023-01-30T19:09:13.467Z,67.13
2023-01-30T19:11:40.644Z,67.89
2023-01-30T19:14:08.613Z,67.97
2023-01-30T19:16:39.959Z,67.87
2023-01-30T19:19:08.655Z,70.70
2023-01-30T19:21:36.230Z,70.86
2023-01-30T19:24:03.329Z,70.17
2023-01-30T19:26:30.226Z,69.99
2023-01-30T19:28:57.033Z,69.81
2023-01-30T19:31:24.086Z,69.37
2023-01-30T19:33:55.887Z,69.58
2023-01-30T19:36:24.636Z,71.45
2023-01-30T19:38:52.934Z,70.57
2023-01-30T19:41:22.907Z,73.04
2023-01-30T19:43:50.545Z,74.18
2023-01-30T19:46:18.198Z,74.44
2023-01-30T19:48:46.940Z,77.46
2023-01-30T19:51:18.264Z,77.37
2023-01-30T19:53:46.740Z,74.71
2023-01-30T19:56:13.643Z,72.67
2023-01-30T19:58:41.069Z,72.83
2023-01-30T20:01:09.887Z,74.98
2023-01-30T20:03:36.884Z,73.43
2023-01-30T20:06:08.447Z,73.17
2023-01-30T20:08:37.449Z,74.24
2023-01-30T20:11:06.553Z,76.18
2023-01-30T20:13:35.176Z,77.73
2023-01-30T20:16:06.522Z,75.51
2023-01-30T20:18:34.638Z,76.82
2023-01-30T20:21:06.175Z,75.43
2023-01-30T20:23:32.947Z,79.44
2023-01-30T20:26:03.269Z,77.50
2023-01-30T20:28:30.127Z,75.19
2023-01-30T20:30:56.994Z,76.37
2023-01-30T20:33:23.913Z,75.12
2023-01-30T20:35:50.845Z,76.44
2023-01-30T20:38:17.727Z,76.03
2023-01-30T20:40:44.547Z,73.11
2023-01-30T20:43:12.900Z,76.04
2023-01-30T20:45:39.817Z,75.91
2023-01-30T20:48:09.517Z,74.81
2023-01-30T20:50:36.286Z,75.85
2023-01-30T20:53:03.016Z,77.48
2023-01-30T20:55:29.880Z,79.78
2023-01-30T20:57:56.629Z,83.96
2023-01-30T21:00:24.794Z,76.34
2023-01-30T21:02:52.499Z,76.53
2023-01-30T21:05:19.798Z,74.25
2023-01-30T21:07:46.732Z,76.08
2023-01-30T21:10:13.528Z,76.92
2023-01-30T21:12:40.407Z,76.88
2023-01-30T21:15:09.259Z,78.35
2023-01-30T21:17:38.003Z,76.28
2023-01-30T21:20:05.368Z,76.31
2023-01-30T21:22:32.156Z,78.90
2023-01-30T21:24:59.388Z,80.47
2023-01-30T21:27:26.828Z,79.55
2023-01-30T21:29:53.567Z,80.58
2023-01-30T21:32:20.776Z,80.76
2023-01-30T21:34:49.415Z,82.27
2023-01-30T21:37:16.630Z,83.36
2023-01-30T21:39:43.411Z,83.38
2023-01-30T21:42:10.402Z,82.31
2023-01-30T21:44:37.988Z,82.92
2023-01-30T21:47:05.615Z,82.95
2023-01-30T21:49:32.716Z,84.75
2023-01-30T21:52:01.422Z,85.41
2023-01-30T21:54:28.495Z,82.15
2023-01-30T21:56:55.818Z,81.22
2023-01-30T21:59:22.726Z,82.60
2023-01-30T22:01:49.486Z,83.12
2023-01-30T22:04:16.569Z,81.78
2023-01-30T22:06:43.700Z,82.15
2023-01-30T22:09:16.140Z,82.09
2023-01-30T22:11:43.370Z,82.05
2023-01-30T22:14:10.483Z,82.96
2023-01-30T22:16:37.694Z,82.85
2023-01-30T22:19:05.249Z,80.28
2023-01-30T22:21:35.157Z,82.12
2023-01-30T22:24:04.616Z,82.04
2023-01-30T22:26:33.320Z,81.02
2023-01-30T22:29:01.869Z,82.57
2023-01-30T22:31:31.702Z,79.52
2023-01-30T22:33:58.491Z,78.88
2023-01-30T22:36:27.956Z,77.83
2023-01-30T22:38:57.085Z,81.72
2023-01-30T22:41:25.506Z,78.51
2023-01-30T22:43:54.964Z,77.84
2023-01-30T22:46:23.703Z,81.18
2023-01-30T22:48:50.491Z,81.64
2023-01-30T22:51:19.032Z,81.39
2023-01-30T22:53:47.580Z,76.96
2023-01-30T22:56:16.529Z,78.57
2023-01-30T22:58:44.454Z,76.04
2023-01-30T23:01:14.365Z,75.66
2023-01-30T23:03:42.290Z,75.41
2023-01-30T23:06:11.494Z,74.23
2023-01-30T23:08:40.679Z,74.94
2023-01-30T23:11:09.889Z,75.00
2023-01-30T23:13:37.267Z,76.42
2023-01-30T23:16:05.866Z,77.38
2023-01-30T23:18:34.870Z,75.39
2023-01-30T23:21:01.751Z,73.83
2023-01-30T23:23:28.638Z,75.73
2023-01-30T23:25:55.466Z,75.26
2023-01-30T23:28:22.215Z,75.91
2023-01-30T23:30:49.025Z,77.45
2023-01-30T23:33:16.231Z,77.34
2023-01-30T23:35:45.165Z,78.08
2023-01-30T23:38:11.934Z,76.97
2023-01-30T23:40:38.756Z,78.24
2023-01-30T23:43:05.504Z,80.41
2023-01-30T23:45:33.657Z,79.72
2023-01-30T23:48:00.539Z,79.99
2023-01-30T23:50:27.360Z,79.89
2023-01-30T23:52:55.683Z,81.00
2023-01-30T23:55:22.416Z,82.13
2023-01-30T23:57:49.187Z,84.45
